sensor_id;sensor_type;location;lat;lon;timestamp;P1;durP1;ratioP1;P2;durP2;ratioP2
3081;SDS011;1551;51.046;7.010;2023-12-29T00:00:06;3.30;;;1.20;;
3081;SDS011;1551;51.046;7.010;2023-12-29T00:02:55;2.58;;;1.17;;
3081;SDS011;1551;51.046;7.010;2023-12-29T00:05:44;4.50;;;1.10;;
3081;SDS011;1551;51.046;7.010;2023-12-29T00:08:33;3.03;;;1.42;;
3081;SDS011;1551;51.046;7.010;2023-12-29T00:11:22;3.20;;;1.30;;
3081;SDS011;1551;51.046;7.010;2023-12-29T00:14:11;4.35;;;1.30;;
3081;SDS011;1551;51.046;7.010;2023-12-29T00:17:00;4.90;;;1.30;;
3081;SDS011;1551;51.046;7.010;2023-12-29T00:19:49;2.08;;;1.10;;
3081;SDS011;1551;51.046;7.010;2023-12-29T00:22:38;2.80;;;1.00;;
3081;SDS011;1551;51.046;7.010;2023-12-29T00:25:27;5.10;;;1.20;;
3081;SDS011;1551;51.046;7.010;2023-12-29T00:28:16;3.17;;;1.40;;
3081;SDS011;1551;51.046;7.010;2023-12-29T00:31:06;4.10;;;1.45;;
3081;SDS011;1551;51.046;7.010;2023-12-29T00:33:55;4.60;;;1.13;;
3081;SDS011;1551;51.046;7.010;2023-12-29T00:36:44;2.63;;;1.30;;
3081;SDS011;1551;51.046;7.010;2023-12-29T00:39:33;3.90;;;1.40;;
3081;SDS011;1551;51.046;7.010;2023-12-29T00:42:26;2.83;;;1.30;;
3081;SDS011;1551;51.046;7.010;2023-12-29T00:45:15;2.50;;;1.20;;
3081;SDS011;1551;51.046;7.010;2023-12-29T00:48:05;3.42;;;1.23;;
3081;SDS011;1551;51.046;7.010;2023-12-29T00:50:54;4.25;;;1.38;;
3081;SDS011;1551;51.046;7.010;2023-12-29T00:53:43;3.55;;;1.30;;
3081;SDS011;1551;51.046;7.010;2023-12-29T00:56:32;3.13;;;1.20;;
3081;SDS011;1551;51.046;7.010;2023-12-29T00:59:23;5.05;;;1.63;;
3081;SDS011;1551;51.046;7.010;2023-12-29T01:02:11;4.18;;;1.10;;
3081;SDS011;1551;51.046;7.010;2023-12-29T01:05:01;3.85;;;1.30;;
3081;SDS011;1551;51.046;7.010;2023-12-29T01:07:49;3.10;;;1.20;;
3081;SDS011;1551;51.046;7.010;2023-12-29T01:10:38;4.68;;;1.20;;
3081;SDS011;1551;51.046;7.010;2023-12-29T01:13:27;3.47;;;1.25;;
3081;SDS011;1551;51.046;7.010;2023-12-29T01:16:17;4.88;;;1.45;;
3081;SDS011;1551;51.046;7.010;2023-12-29T01:19:06;4.60;;;1.20;;
3081;SDS011;1551;51.046;7.010;2023-12-29T01:21:54;3.65;;;1.25;;
3081;SDS011;1551;51.046;7.010;2023-12-29T01:24:44;3.38;;;1.00;;
3081;SDS011;1551;51.046;7.010;2023-12-29T01:27:33;2.83;;;1.20;;
3081;SDS011;1551;51.046;7.010;2023-12-29T01:30:23;3.40;;;1.45;;
3081;SDS011;1551;51.046;7.010;2023-12-29T01:33:12;4.97;;;1.40;;
3081;SDS011;1551;51.046;7.010;2023-12-29T01:36:01;4.70;;;1.52;;
3081;SDS011;1551;51.046;7.010;2023-12-29T01:38:50;3.10;;;1.60;;
3081;SDS011;1551;51.046;7.010;2023-12-29T01:41:39;4.38;;;1.42;;
3081;SDS011;1551;51.046;7.010;2023-12-29T01:44:28;4.47;;;1.08;;
3081;SDS011;1551;51.046;7.010;2023-12-29T01:47:17;5.85;;;1.60;;
3081;SDS011;1551;51.046;7.010;2023-12-29T01:50:06;4.85;;;1.98;;
3081;SDS011;1551;51.046;7.010;2023-12-29T01:52:56;4.15;;;1.30;;
3081;SDS011;1551;51.046;7.010;2023-12-29T01:55:47;4.00;;;1.60;;
3081;SDS011;1551;51.046;7.010;2023-12-29T01:58:36;2.90;;;1.50;;
3081;SDS011;1551;51.046;7.010;2023-12-29T02:01:26;3.88;;;1.52;;
3081;SDS011;1551;51.046;7.010;2023-12-29T02:04:16;3.40;;;1.23;;
3081;SDS011;1551;51.046;7.010;2023-12-29T02:07:06;3.58;;;1.45;;
3081;SDS011;1551;51.046;7.010;2023-12-29T02:09:56;4.20;;;1.40;;
3081;SDS011;1551;51.046;7.010;2023-12-29T02:12:47;3.90;;;1.30;;
3081;SDS011;1551;51.046;7.010;2023-12-29T02:15:38;3.30;;;1.60;;
3081;SDS011;1551;51.046;7.010;2023-12-29T02:18:27;4.43;;;1.42;;
3081;SDS011;1551;51.046;7.010;2023-12-29T02:21:22;4.97;;;1.48;;
3081;SDS011;1551;51.046;7.010;2023-12-29T02:24:14;7.20;;;1.43;;
3081;SDS011;1551;51.046;7.010;2023-12-29T02:27:07;5.05;;;1.45;;
3081;SDS011;1551;51.046;7.010;2023-12-29T02:30:09;4.47;;;1.58;;
3081;SDS011;1551;51.046;7.010;2023-12-29T02:33:10;4.63;;;1.92;;
3081;SDS011;1551;51.046;7.010;2023-12-29T02:36:05;3.75;;;1.80;;
3081;SDS011;1551;51.046;7.010;2023-12-29T02:38:55;5.28;;;2.28;;
3081;SDS011;1551;51.046;7.010;2023-12-29T02:41:44;5.93;;;1.95;;
3081;SDS011;1551;51.046;7.010;2023-12-29T02:44:33;6.50;;;1.90;;
3081;SDS011;1551;51.046;7.010;2023-12-29T02:47:22;5.15;;;1.65;;
3081;SDS011;1551;51.046;7.010;2023-12-29T02:50:11;4.78;;;1.70;;
3081;SDS011;1551;51.046;7.010;2023-12-29T02:53:00;3.30;;;1.42;;
3081;SDS011;1551;51.046;7.010;2023-12-29T02:55:48;7.55;;;2.10;;
3081;SDS011;1551;51.046;7.010;2023-12-29T02:58:37;4.45;;;1.77;;
3081;SDS011;1551;51.046;7.010;2023-12-29T03:01:26;7.40;;;1.90;;
3081;SDS011;1551;51.046;7.010;2023-12-29T03:04:17;3.25;;;1.40;;
3081;SDS011;1551;51.046;7.010;2023-12-29T03:07:06;4.20;;;1.40;;
3081;SDS011;1551;51.046;7.010;2023-12-29T03:09:56;7.63;;;1.90;;
3081;SDS011;1551;51.046;7.010;2023-12-29T03:12:45;3.88;;;1.90;;
3081;SDS011;1551;51.046;7.010;2023-12-29T03:15:34;4.82;;;1.70;;
3081;SDS011;1551;51.046;7.010;2023-12-29T03:18:23;7.90;;;1.70;;
3081;SDS011;1551;51.046;7.010;2023-12-29T03:21:12;4.57;;;1.47;;
3081;SDS011;1551;51.046;7.010;2023-12-29T03:24:01;5.43;;;1.50;;
3081;SDS011;1551;51.046;7.010;2023-12-29T03:26:50;4.50;;;1.40;;
3081;SDS011;1551;51.046;7.010;2023-12-29T03:29:39;4.53;;;1.48;;
3081;SDS011;1551;51.046;7.010;2023-12-29T03:32:28;8.52;;;2.00;;
3081;SDS011;1551;51.046;7.010;2023-12-29T03:35:17;3.50;;;1.10;;
3081;SDS011;1551;51.046;7.010;2023-12-29T03:38:06;4.20;;;1.50;;
3081;SDS011;1551;51.046;7.010;2023-12-29T03:40:56;5.35;;;1.70;;
3081;SDS011;1551;51.046;7.010;2023-12-29T03:43:45;3.97;;;1.23;;
3081;SDS011;1551;51.046;7.010;2023-12-29T03:46:34;6.15;;;1.70;;
3081;SDS011;1551;51.046;7.010;2023-12-29T03:49:23;3.67;;;1.40;;
3081;SDS011;1551;51.046;7.010;2023-12-29T03:52:12;7.53;;;1.50;;
3081;SDS011;1551;51.046;7.010;2023-12-29T03:55:01;3.00;;;1.40;;
3081;SDS011;1551;51.046;7.010;2023-12-29T03:57:50;5.50;;;1.40;;
3081;SDS011;1551;51.046;7.010;2023-12-29T04:00:39;5.63;;;1.20;;
3081;SDS011;1551;51.046;7.010;2023-12-29T04:03:30;5.03;;;1.33;;
3081;SDS011;1551;51.046;7.010;2023-12-29T04:06:19;5.20;;;1.30;;
3081;SDS011;1551;51.046;7.010;2023-12-29T04:09:08;5.93;;;1.40;;
3081;SDS011;1551;51.046;7.010;2023-12-29T04:11:57;6.77;;;1.30;;
3081;SDS011;1551;51.046;7.010;2023-12-29T04:14:46;5.85;;;1.83;;
3081;SDS011;1551;51.046;7.010;2023-12-29T04:17:35;4.70;;;1.40;;
3081;SDS011;1551;51.046;7.010;2023-12-29T04:20:24;4.30;;;1.40;;
3081;SDS011;1551;51.046;7.010;2023-12-29T04:23:13;7.78;;;1.90;;
3081;SDS011;1551;51.046;7.010;2023-12-29T04:26:02;4.63;;;1.50;;
3081;SDS011;1551;51.046;7.010;2023-12-29T04:28:51;5.68;;;2.00;;
3081;SDS011;1551;51.046;7.010;2023-12-29T04:31:41;3.40;;;1.75;;
3081;SDS011;1551;51.046;7.010;2023-12-29T04:34:30;3.90;;;1.30;;
3081;SDS011;1551;51.046;7.010;2023-12-29T04:37:18;4.50;;;1.60;;
3081;SDS011;1551;51.046;7.010;2023-12-29T04:40:08;3.20;;;1.33;;
3081;SDS011;1551;51.046;7.010;2023-12-29T04:42:57;4.75;;;1.63;;
3081;SDS011;1551;51.046;7.010;2023-12-29T04:45:46;3.60;;;1.52;;
3081;SDS011;1551;51.046;7.010;2023-12-29T04:48:35;4.78;;;1.75;;
3081;SDS011;1551;51.046;7.010;2023-12-29T04:51:24;6.43;;;1.45;;
3081;SDS011;1551;51.046;7.010;2023-12-29T04:54:13;5.30;;;1.50;;
3081;SDS011;1551;51.046;7.010;2023-12-29T04:57:02;3.10;;;1.60;;
3081;SDS011;1551;51.046;7.010;2023-12-29T04:59:51;3.70;;;1.58;;
3081;SDS011;1551;51.046;7.010;2023-12-29T05:02:40;4.77;;;1.50;;
3081;SDS011;1551;51.046;7.010;2023-12-29T05:05:29;3.55;;;1.30;;
3081;SDS011;1551;51.046;7.010;2023-12-29T05:08:18;3.80;;;1.10;;
3081;SDS011;1551;51.046;7.010;2023-12-29T05:11:07;4.28;;;1.50;;
3081;SDS011;1551;51.046;7.010;2023-12-29T05:13:56;6.18;;;1.50;;
3081;SDS011;1551;51.046;7.010;2023-12-29T05:16:45;3.67;;;0.90;;
3081;SDS011;1551;51.046;7.010;2023-12-29T05:19:34;5.90;;;1.60;;
3081;SDS011;1551;51.046;7.010;2023-12-29T05:22:23;4.60;;;1.60;;
3081;SDS011;1551;51.046;7.010;2023-12-29T05:25:12;5.30;;;1.50;;
3081;SDS011;1551;51.046;7.010;2023-12-29T05:28:01;5.25;;;1.60;;
3081;SDS011;1551;51.046;7.010;2023-12-29T05:30:50;5.30;;;1.67;;
3081;SDS011;1551;51.046;7.010;2023-12-29T05:33:39;3.50;;;1.10;;
3081;SDS011;1551;51.046;7.010;2023-12-29T05:36:28;5.68;;;1.70;;
3081;SDS011;1551;51.046;7.010;2023-12-29T05:39:17;3.10;;;1.10;;
3081;SDS011;1551;51.046;7.010;2023-12-29T05:42:06;4.53;;;1.40;;
3081;SDS011;1551;51.046;7.010;2023-12-29T05:44:55;4.40;;;1.52;;
3081;SDS011;1551;51.046;7.010;2023-12-29T05:47:44;5.30;;;1.58;;
3081;SDS011;1551;51.046;7.010;2023-12-29T05:50:33;5.40;;;1.90;;
3081;SDS011;1551;51.046;7.010;2023-12-29T05:53:22;3.05;;;1.10;;
3081;SDS011;1551;51.046;7.010;2023-12-29T05:56:12;4.00;;;1.30;;
3081;SDS011;1551;51.046;7.010;2023-12-29T05:59:02;4.28;;;1.63;;
3081;SDS011;1551;51.046;7.010;2023-12-29T06:01:51;5.90;;;1.67;;
3081;SDS011;1551;51.046;7.010;2023-12-29T06:04:40;3.67;;;1.50;;
3081;SDS011;1551;51.046;7.010;2023-12-29T06:07:29;5.05;;;1.13;;
3081;SDS011;1551;51.046;7.010;2023-12-29T06:10:18;5.80;;;1.33;;
3081;SDS011;1551;51.046;7.010;2023-12-29T06:13:07;5.28;;;1.83;;
3081;SDS011;1551;51.046;7.010;2023-12-29T06:15:56;5.93;;;1.60;;
3081;SDS011;1551;51.046;7.010;2023-12-29T06:18:45;5.50;;;1.47;;
3081;SDS011;1551;51.046;7.010;2023-12-29T06:21:40;7.68;;;1.42;;
3081;SDS011;1551;51.046;7.010;2023-12-29T06:24:32;4.50;;;1.40;;
3081;SDS011;1551;51.046;7.010;2023-12-29T06:27:22;3.80;;;1.58;;
3081;SDS011;1551;51.046;7.010;2023-12-29T06:30:11;3.47;;;1.23;;
3081;SDS011;1551;51.046;7.010;2023-12-29T06:33:01;3.03;;;1.02;;
3081;SDS011;1551;51.046;7.010;2023-12-29T06:35:50;5.35;;;1.60;;
3081;SDS011;1551;51.046;7.010;2023-12-29T06:38:39;5.55;;;1.80;;
3081;SDS011;1551;51.046;7.010;2023-12-29T06:41:28;4.27;;;1.00;;
3081;SDS011;1551;51.046;7.010;2023-12-29T06:44:17;4.50;;;1.50;;
3081;SDS011;1551;51.046;7.010;2023-12-29T06:47:06;6.07;;;1.38;;
3081;SDS011;1551;51.046;7.010;2023-12-29T06:49:55;6.72;;;1.50;;
3081;SDS011;1551;51.046;7.010;2023-12-29T06:52:46;5.40;;;1.17;;
3081;SDS011;1551;51.046;7.010;2023-12-29T06:55:35;4.80;;;1.20;;
3081;SDS011;1551;51.046;7.010;2023-12-29T06:58:24;5.35;;;1.35;;
3081;SDS011;1551;51.046;7.010;2023-12-29T07:01:13;5.20;;;1.58;;
3081;SDS011;1551;51.046;7.010;2023-12-29T07:04:02;5.70;;;1.60;;
3081;SDS011;1551;51.046;7.010;2023-12-29T07:06:53;4.10;;;1.40;;
3081;SDS011;1551;51.046;7.010;2023-12-29T07:09:41;7.30;;;1.50;;
3081;SDS011;1551;51.046;7.010;2023-12-29T07:12:30;5.95;;;2.10;;
3081;SDS011;1551;51.046;7.010;2023-12-29T07:15:19;4.60;;;1.60;;
3081;SDS011;1551;51.046;7.010;2023-12-29T07:18:08;4.00;;;1.20;;
3081;SDS011;1551;51.046;7.010;2023-12-29T07:20:57;3.75;;;1.10;;
3081;SDS011;1551;51.046;7.010;2023-12-29T07:23:46;5.00;;;1.17;;
3081;SDS011;1551;51.046;7.010;2023-12-29T07:26:35;4.80;;;1.27;;
3081;SDS011;1551;51.046;7.010;2023-12-29T07:29:24;3.85;;;1.08;;
3081;SDS011;1551;51.046;7.010;2023-12-29T07:32:13;4.40;;;1.70;;
3081;SDS011;1551;51.046;7.010;2023-12-29T07:35:02;5.75;;;1.50;;
3081;SDS011;1551;51.046;7.010;2023-12-29T07:37:51;3.78;;;1.10;;
3081;SDS011;1551;51.046;7.010;2023-12-29T07:40:40;5.93;;;1.00;;
3081;SDS011;1551;51.046;7.010;2023-12-29T07:43:30;3.30;;;1.50;;
3081;SDS011;1551;51.046;7.010;2023-12-29T07:46:26;4.40;;;1.20;;
3081;SDS011;1551;51.046;7.010;2023-12-29T07:49:15;4.60;;;1.30;;
3081;SDS011;1551;51.046;7.010;2023-12-29T07:52:04;3.10;;;1.20;;
3081;SDS011;1551;51.046;7.010;2023-12-29T07:54:53;3.10;;;1.20;;
3081;SDS011;1551;51.046;7.010;2023-12-29T07:57:42;2.45;;;1.05;;
3081;SDS011;1551;51.046;7.010;2023-12-29T08:00:32;5.53;;;1.55;;
3081;SDS011;1551;51.046;7.010;2023-12-29T08:03:21;5.18;;;1.45;;
3081;SDS011;1551;51.046;7.010;2023-12-29T08:06:10;6.87;;;1.70;;
3081;SDS011;1551;51.046;7.010;2023-12-29T08:09:00;3.60;;;1.50;;
3081;SDS011;1551;51.046;7.010;2023-12-29T08:11:49;3.88;;;1.58;;
3081;SDS011;1551;51.046;7.010;2023-12-29T08:14:38;6.05;;;2.00;;
3081;SDS011;1551;51.046;7.010;2023-12-29T08:17:27;6.35;;;1.80;;
3081;SDS011;1551;51.046;7.010;2023-12-29T08:20:16;4.93;;;1.95;;
3081;SDS011;1551;51.046;7.010;2023-12-29T08:23:05;2.38;;;0.82;;
3081;SDS011;1551;51.046;7.010;2023-12-29T08:25:56;5.70;;;1.73;;
3081;SDS011;1551;51.046;7.010;2023-12-29T08:28:46;3.00;;;1.23;;
3081;SDS011;1551;51.046;7.010;2023-12-29T08:31:35;4.80;;;1.10;;
3081;SDS011;1551;51.046;7.010;2023-12-29T08:34:24;5.67;;;1.10;;
3081;SDS011;1551;51.046;7.010;2023-12-29T08:37:14;5.20;;;1.27;;
3081;SDS011;1551;51.046;7.010;2023-12-29T08:40:08;3.75;;;1.08;;
3081;SDS011;1551;51.046;7.010;2023-12-29T08:42:58;3.65;;;1.00;;
3081;SDS011;1551;51.046;7.010;2023-12-29T08:45:47;5.10;;;1.70;;
3081;SDS011;1551;51.046;7.010;2023-12-29T08:48:37;2.90;;;1.30;;
3081;SDS011;1551;51.046;7.010;2023-12-29T08:51:26;3.83;;;1.13;;
3081;SDS011;1551;51.046;7.010;2023-12-29T08:54:14;6.25;;;2.20;;
3081;SDS011;1551;51.046;7.010;2023-12-29T08:57:04;8.73;;;2.30;;
3081;SDS011;1551;51.046;7.010;2023-12-29T08:59:53;9.00;;;2.20;;
3081;SDS011;1551;51.046;7.010;2023-12-29T09:02:42;5.15;;;1.80;;
3081;SDS011;1551;51.046;7.010;2023-12-29T09:05:32;5.77;;;2.07;;
3081;SDS011;1551;51.046;7.010;2023-12-29T09:08:21;5.80;;;1.73;;
3081;SDS011;1551;51.046;7.010;2023-12-29T09:11:10;5.30;;;1.60;;
3081;SDS011;1551;51.046;7.010;2023-12-29T09:13:59;3.90;;;1.70;;
3081;SDS011;1551;51.046;7.010;2023-12-29T09:16:48;4.93;;;1.88;;
3081;SDS011;1551;51.046;7.010;2023-12-29T09:19:37;4.85;;;1.90;;
3081;SDS011;1551;51.046;7.010;2023-12-29T09:22:25;5.30;;;2.00;;
3081;SDS011;1551;51.046;7.010;2023-12-29T09:25:15;4.65;;;1.70;;
3081;SDS011;1551;51.046;7.010;2023-12-29T09:28:04;6.10;;;1.45;;
3081;SDS011;1551;51.046;7.010;2023-12-29T09:30:53;7.00;;;1.48;;
3081;SDS011;1551;51.046;7.010;2023-12-29T09:33:42;5.70;;;1.40;;
3081;SDS011;1551;51.046;7.010;2023-12-29T09:36:30;6.50;;;2.17;;
3081;SDS011;1551;51.046;7.010;2023-12-29T09:39:20;7.28;;;2.30;;
3081;SDS011;1551;51.046;7.010;2023-12-29T09:42:09;4.93;;;1.50;;
3081;SDS011;1551;51.046;7.010;2023-12-29T09:45:06;4.88;;;1.98;;
3081;SDS011;1551;51.046;7.010;2023-12-29T09:47:59;6.60;;;2.05;;
3081;SDS011;1551;51.046;7.010;2023-12-29T09:50:51;4.80;;;2.13;;
3081;SDS011;1551;51.046;7.010;2023-12-29T09:53:41;6.90;;;1.98;;
3081;SDS011;1551;51.046;7.010;2023-12-29T09:56:31;7.40;;;2.08;;
3081;SDS011;1551;51.046;7.010;2023-12-29T09:59:20;5.68;;;1.67;;
3081;SDS011;1551;51.046;7.010;2023-12-29T10:02:16;6.32;;;1.90;;
3081;SDS011;1551;51.046;7.010;2023-12-29T10:05:05;11.90;;;5.10;;
3081;SDS011;1551;51.046;7.010;2023-12-29T10:07:55;6.22;;;1.60;;
3081;SDS011;1551;51.046;7.010;2023-12-29T10:10:50;5.70;;;1.90;;
3081;SDS011;1551;51.046;7.010;2023-12-29T10:13:41;4.40;;;1.70;;
3081;SDS011;1551;51.046;7.010;2023-12-29T10:16:37;4.10;;;1.40;;
3081;SDS011;1551;51.046;7.010;2023-12-29T10:25:40;3.60;;;1.20;;
3081;SDS011;1551;51.046;7.010;2023-12-29T10:28:30;3.60;;;1.15;;
3081;SDS011;1551;51.046;7.010;2023-12-29T10:31:19;5.00;;;1.40;;
3081;SDS011;1551;51.046;7.010;2023-12-29T10:34:20;2.00;;;0.90;;
3081;SDS011;1551;51.046;7.010;2023-12-29T10:37:23;2.78;;;0.85;;
3081;SDS011;1551;51.046;7.010;2023-12-29T10:40:19;3.80;;;1.00;;
3081;SDS011;1551;51.046;7.010;2023-12-29T10:43:08;2.67;;;0.80;;
3081;SDS011;1551;51.046;7.010;2023-12-29T10:46:05;2.55;;;0.98;;
3081;SDS011;1551;51.046;7.010;2023-12-29T10:49:06;2.50;;;0.80;;
3081;SDS011;1551;51.046;7.010;2023-12-29T10:51:56;2.70;;;0.70;;
3081;SDS011;1551;51.046;7.010;2023-12-29T10:54:45;3.30;;;0.70;;
3081;SDS011;1551;51.046;7.010;2023-12-29T10:57:35;2.33;;;1.00;;
3081;SDS011;1551;51.046;7.010;2023-12-29T11:00:29;2.20;;;0.70;;
3081;SDS011;1551;51.046;7.010;2023-12-29T11:03:18;3.15;;;0.73;;
3081;SDS011;1551;51.046;7.010;2023-12-29T11:06:07;2.80;;;0.73;;
3081;SDS011;1551;51.046;7.010;2023-12-29T11:08:56;2.20;;;0.95;;
3081;SDS011;1551;51.046;7.010;2023-12-29T11:11:46;2.43;;;0.70;;
3081;SDS011;1551;51.046;7.010;2023-12-29T11:14:35;1.90;;;0.70;;
3081;SDS011;1551;51.046;7.010;2023-12-29T11:17:26;3.20;;;1.10;;
3081;SDS011;1551;51.046;7.010;2023-12-29T11:20:15;3.60;;;0.70;;
3081;SDS011;1551;51.046;7.010;2023-12-29T11:23:11;2.08;;;0.70;;
3081;SDS011;1551;51.046;7.010;2023-12-29T11:26:04;2.80;;;1.30;;
3081;SDS011;1551;51.046;7.010;2023-12-29T11:28:53;2.50;;;0.90;;
3081;SDS011;1551;51.046;7.010;2023-12-29T11:31:43;2.30;;;0.60;;
3081;SDS011;1551;51.046;7.010;2023-12-29T11:34:37;2.90;;;0.80;;
3081;SDS011;1551;51.046;7.010;2023-12-29T11:37:56;2.70;;;0.70;;
3081;SDS011;1551;51.046;7.010;2023-12-29T11:44:25;4.00;;;1.00;;
3081;SDS011;1551;51.046;7.010;2023-12-29T11:47:34;2.17;;;1.05;;
3081;SDS011;1551;51.046;7.010;2023-12-29T11:50:28;3.60;;;0.80;;
3081;SDS011;1551;51.046;7.010;2023-12-29T11:53:30;3.30;;;1.10;;
3081;SDS011;1551;51.046;7.010;2023-12-29T11:56:21;4.10;;;0.95;;
3081;SDS011;1551;51.046;7.010;2023-12-29T11:59:14;2.45;;;0.70;;
3081;SDS011;1551;51.046;7.010;2023-12-29T12:02:10;2.10;;;0.80;;
3081;SDS011;1551;51.046;7.010;2023-12-29T12:05:44;2.70;;;0.70;;
3081;SDS011;1551;51.046;7.010;2023-12-29T12:08:37;5.28;;;1.10;;
3081;SDS011;1551;51.046;7.010;2023-12-29T12:17:41;2.30;;;0.80;;
3081;SDS011;1551;51.046;7.010;2023-12-29T12:20:30;3.05;;;0.80;;
3081;SDS011;1551;51.046;7.010;2023-12-29T12:23:19;2.58;;;0.82;;
3081;SDS011;1551;51.046;7.010;2023-12-29T12:26:08;2.72;;;0.93;;
3081;SDS011;1551;51.046;7.010;2023-12-29T12:28:58;2.00;;;0.70;;
3081;SDS011;1551;51.046;7.010;2023-12-29T12:31:54;2.72;;;0.70;;
3081;SDS011;1551;51.046;7.010;2023-12-29T12:34:44;2.90;;;0.90;;
3081;SDS011;1551;51.046;7.010;2023-12-29T12:37:34;1.83;;;0.75;;
3081;SDS011;1551;51.046;7.010;2023-12-29T12:40:26;3.20;;;0.88;;
3081;SDS011;1551;51.046;7.010;2023-12-29T12:43:16;1.80;;;0.80;;
3081;SDS011;1551;51.046;7.010;2023-12-29T12:46:05;4.00;;;0.90;;
3081;SDS011;1551;51.046;7.010;2023-12-29T12:48:58;2.00;;;0.65;;
3081;SDS011;1551;51.046;7.010;2023-12-29T12:51:48;2.30;;;1.10;;
3081;SDS011;1551;51.046;7.010;2023-12-29T12:54:37;1.88;;;0.70;;
3081;SDS011;1551;51.046;7.010;2023-12-29T12:57:26;3.67;;;0.90;;
3081;SDS011;1551;51.046;7.010;2023-12-29T13:00:15;3.00;;;0.90;;
3081;SDS011;1551;51.046;7.010;2023-12-29T13:03:05;4.00;;;0.90;;
3081;SDS011;1551;51.046;7.010;2023-12-29T13:05:54;4.10;;;1.00;;
3081;SDS011;1551;51.046;7.010;2023-12-29T13:08:50;2.63;;;0.90;;
3081;SDS011;1551;51.046;7.010;2023-12-29T13:11:40;2.30;;;0.77;;
3081;SDS011;1551;51.046;7.010;2023-12-29T13:14:29;2.38;;;0.63;;
3081;SDS011;1551;51.046;7.010;2023-12-29T13:17:18;2.10;;;0.80;;
3081;SDS011;1551;51.046;7.010;2023-12-29T13:20:11;2.80;;;0.77;;
3081;SDS011;1551;51.046;7.010;2023-12-29T13:23:00;2.30;;;0.70;;
3081;SDS011;1551;51.046;7.010;2023-12-29T13:25:49;2.15;;;0.93;;
3081;SDS011;1551;51.046;7.010;2023-12-29T13:28:46;2.08;;;0.90;;
3081;SDS011;1551;51.046;7.010;2023-12-29T13:31:35;2.40;;;0.70;;
3081;SDS011;1551;51.046;7.010;2023-12-29T13:40:28;2.40;;;0.80;;
3081;SDS011;1551;51.046;7.010;2023-12-29T13:43:36;1.92;;;0.82;;
3081;SDS011;1551;51.046;7.010;2023-12-29T13:46:31;3.47;;;0.80;;
3081;SDS011;1551;51.046;7.010;2023-12-29T13:49:21;3.60;;;0.80;;
3081;SDS011;1551;51.046;7.010;2023-12-29T13:52:10;2.30;;;0.90;;
3081;SDS011;1551;51.046;7.010;2023-12-29T13:55:00;2.13;;;0.63;;
3081;SDS011;1551;51.046;7.010;2023-12-29T13:57:50;2.07;;;0.70;;
3081;SDS011;1551;51.046;7.010;2023-12-29T14:00:40;2.42;;;1.23;;
3081;SDS011;1551;51.046;7.010;2023-12-29T14:03:34;2.95;;;1.13;;
3081;SDS011;1551;51.046;7.010;2023-12-29T14:06:37;3.80;;;1.20;;
3081;SDS011;1551;51.046;7.010;2023-12-29T14:09:30;1.73;;;0.70;;
3081;SDS011;1551;51.046;7.010;2023-12-29T14:12:23;2.30;;;0.90;;
3081;SDS011;1551;51.046;7.010;2023-12-29T14:15:14;2.30;;;0.80;;
3081;SDS011;1551;51.046;7.010;2023-12-29T14:21:01;1.80;;;0.80;;
3081;SDS011;1551;51.046;7.010;2023-12-29T14:26:55;2.20;;;0.80;;
3081;SDS011;1551;51.046;7.010;2023-12-29T14:29:45;1.70;;;0.60;;
3081;SDS011;1551;51.046;7.010;2023-12-29T14:32:34;2.60;;;0.68;;
3081;SDS011;1551;51.046;7.010;2023-12-29T14:35:23;2.50;;;0.50;;
3081;SDS011;1551;51.046;7.010;2023-12-29T14:38:12;1.80;;;0.68;;
3081;SDS011;1551;51.046;7.010;2023-12-29T14:41:05;2.20;;;0.60;;
3081;SDS011;1551;51.046;7.010;2023-12-29T14:43:54;2.20;;;0.60;;
3081;SDS011;1551;51.046;7.010;2023-12-29T14:46:43;3.92;;;0.70;;
3081;SDS011;1551;51.046;7.010;2023-12-29T14:49:32;2.10;;;0.88;;
3081;SDS011;1551;51.046;7.010;2023-12-29T14:52:21;2.80;;;0.80;;
3081;SDS011;1551;51.046;7.010;2023-12-29T14:55:10;1.85;;;0.80;;
3081;SDS011;1551;51.046;7.010;2023-12-29T14:57:59;1.80;;;0.60;;
3081;SDS011;1551;51.046;7.010;2023-12-29T15:00:48;2.72;;;0.77;;
3081;SDS011;1551;51.046;7.010;2023-12-29T15:03:37;2.22;;;0.60;;
3081;SDS011;1551;51.046;7.010;2023-12-29T15:06:26;1.80;;;0.70;;
3081;SDS011;1551;51.046;7.010;2023-12-29T15:09:15;3.20;;;1.08;;
3081;SDS011;1551;51.046;7.010;2023-12-29T15:12:04;2.83;;;0.93;;
3081;SDS011;1551;51.046;7.010;2023-12-29T15:14:54;3.58;;;0.90;;
3081;SDS011;1551;51.046;7.010;2023-12-29T15:17:43;2.50;;;1.00;;
3081;SDS011;1551;51.046;7.010;2023-12-29T15:20:32;2.33;;;1.00;;
3081;SDS011;1551;51.046;7.010;2023-12-29T15:23:20;2.35;;;0.75;;
3081;SDS011;1551;51.046;7.010;2023-12-29T15:26:11;1.85;;;0.75;;
3081;SDS011;1551;51.046;7.010;2023-12-29T15:29:03;2.60;;;1.10;;
3081;SDS011;1551;51.046;7.010;2023-12-29T15:31:52;1.73;;;0.60;;
3081;SDS011;1551;51.046;7.010;2023-12-29T15:34:41;2.10;;;0.90;;
3081;SDS011;1551;51.046;7.010;2023-12-29T15:37:30;1.90;;;0.80;;
3081;SDS011;1551;51.046;7.010;2023-12-29T15:40:19;2.20;;;0.80;;
3081;SDS011;1551;51.046;7.010;2023-12-29T15:43:08;2.20;;;0.90;;
3081;SDS011;1551;51.046;7.010;2023-12-29T15:45:57;2.65;;;0.70;;
3081;SDS011;1551;51.046;7.010;2023-12-29T15:48:46;1.90;;;0.70;;
3081;SDS011;1551;51.046;7.010;2023-12-29T15:51:35;2.20;;;0.90;;
3081;SDS011;1551;51.046;7.010;2023-12-29T15:54:25;2.13;;;0.93;;
3081;SDS011;1551;51.046;7.010;2023-12-29T15:57:13;1.92;;;0.50;;
3081;SDS011;1551;51.046;7.010;2023-12-29T16:00:02;3.20;;;1.23;;
3081;SDS011;1551;51.046;7.010;2023-12-29T16:03:00;2.40;;;0.80;;
3081;SDS011;1551;51.046;7.010;2023-12-29T16:05:49;3.42;;;1.55;;
3081;SDS011;1551;51.046;7.010;2023-12-29T16:08:38;2.10;;;0.70;;
3081;SDS011;1551;51.046;7.010;2023-12-29T16:11:27;1.87;;;0.90;;
3081;SDS011;1551;51.046;7.010;2023-12-29T16:14:18;2.45;;;0.70;;
3081;SDS011;1551;51.046;7.010;2023-12-29T16:17:07;1.70;;;0.70;;
3081;SDS011;1551;51.046;7.010;2023-12-29T16:19:56;2.03;;;0.63;;
3081;SDS011;1551;51.046;7.010;2023-12-29T16:22:45;1.70;;;0.50;;
3081;SDS011;1551;51.046;7.010;2023-12-29T16:25:34;3.25;;;1.20;;
3081;SDS011;1551;51.046;7.010;2023-12-29T16:28:23;2.00;;;0.80;;
3081;SDS011;1551;51.046;7.010;2023-12-29T16:31:13;2.60;;;1.30;;
3081;SDS011;1551;51.046;7.010;2023-12-29T16:34:02;2.17;;;1.02;;
3081;SDS011;1551;51.046;7.010;2023-12-29T16:36:57;3.75;;;1.80;;
3081;SDS011;1551;51.046;7.010;2023-12-29T16:39:47;4.40;;;1.70;;
3081;SDS011;1551;51.046;7.010;2023-12-29T16:42:36;4.75;;;1.70;;
3081;SDS011;1551;51.046;7.010;2023-12-29T16:45:25;3.40;;;1.70;;
3081;SDS011;1551;51.046;7.010;2023-12-29T16:48:16;2.70;;;1.35;;
3081;SDS011;1551;51.046;7.010;2023-12-29T16:51:05;2.97;;;1.10;;
3081;SDS011;1551;51.046;7.010;2023-12-29T16:53:59;2.78;;;0.93;;
3081;SDS011;1551;51.046;7.010;2023-12-29T16:56:50;2.58;;;1.05;;
3081;SDS011;1551;51.046;7.010;2023-12-29T16:59:39;2.07;;;0.90;;
3081;SDS011;1551;51.046;7.010;2023-12-29T17:02:29;2.70;;;0.80;;
3081;SDS011;1551;51.046;7.010;2023-12-29T17:05:17;2.60;;;1.30;;
3081;SDS011;1551;51.046;7.010;2023-12-29T17:08:06;2.40;;;0.93;;
3081;SDS011;1551;51.046;7.010;2023-12-29T17:10:55;2.00;;;0.90;;
3081;SDS011;1551;51.046;7.010;2023-12-29T17:13:44;2.30;;;0.80;;
3081;SDS011;1551;51.046;7.010;2023-12-29T17:16:33;2.35;;;1.02;;
3081;SDS011;1551;51.046;7.010;2023-12-29T17:19:22;3.13;;;0.98;;
3081;SDS011;1551;51.046;7.010;2023-12-29T17:22:14;4.03;;;0.90;;
3081;SDS011;1551;51.046;7.010;2023-12-29T17:25:05;3.20;;;1.30;;
3081;SDS011;1551;51.046;7.010;2023-12-29T17:27:55;2.53;;;1.40;;
3081;SDS011;1551;51.046;7.010;2023-12-29T17:30:45;3.47;;;0.88;;
3081;SDS011;1551;51.046;7.010;2023-12-29T17:33:33;2.40;;;0.90;;
3081;SDS011;1551;51.046;7.010;2023-12-29T17:36:22;2.40;;;1.00;;
3081;SDS011;1551;51.046;7.010;2023-12-29T17:39:12;3.63;;;1.30;;
3081;SDS011;1551;51.046;7.010;2023-12-29T17:42:01;3.50;;;1.10;;
3081;SDS011;1551;51.046;7.010;2023-12-29T17:44:50;3.00;;;1.20;;
3081;SDS011;1551;51.046;7.010;2023-12-29T17:47:38;3.00;;;0.80;;
3081;SDS011;1551;51.046;7.010;2023-12-29T17:50:28;3.30;;;1.30;;
3081;SDS011;1551;51.046;7.010;2023-12-29T17:53:17;2.20;;;0.80;;
3081;SDS011;1551;51.046;7.010;2023-12-29T17:56:07;2.78;;;1.10;;
3081;SDS011;1551;51.046;7.010;2023-12-29T17:58:56;2.27;;;0.97;;
3081;SDS011;1551;51.046;7.010;2023-12-29T18:01:48;5.72;;;1.27;;
3081;SDS011;1551;51.046;7.010;2023-12-29T18:04:38;2.58;;;1.45;;